Time;durP1;ratioP1;P1;durP2;ratioP2;P2;SDS_P1;SDS_P2;PMS_P1;PMS_P2;Temp;Humidity;BMP_temperature;BMP_pressure;BME280_temperature;BME280_humidity;BME280_pressure;Samples;Min_cycle;Max_cycle;Signal;HPM_P1;HPM_P2
2021/10/28 00:15:26;;;;;;;36.33;13.60;;;;;;;-144.43;100.00;64487.81;5013271;28;20495;-53
2021/10/28 00:18:55;;;;;;;28.98;12.75;;;;;;;-144.43;100.00;64487.81;4996916;28;20487;-57
2021/10/28 00:22:23;;;;;;;26.30;13.32;;;;;;;-144.43;100.00;64487.81;4996013;28;20044;-59
2021/10/28 00:25:52;;;;;;;39.28;12.95;;;;;;;-144.43;100.00;64487.81;4995085;28;20477;-54
2021/10/28 00:29:17;;;;;;;25.20;11.70;;;;;;;-144.43;100.00;64487.81;5012936;28;20033;-59
2021/10/28 00:32:41;;;;;;;17.33;11.45;;;;;;;-144.43;100.00;64487.81;5012538;28;20366;-59
2021/10/28 00:36:06;;;;;;;15.73;11.40;;;;;;;-144.43;100.00;64487.81;5014644;28;20037;-54
2021/10/28 00:39:30;;;;;;;21.58;11.45;;;;;;;-144.43;100.00;64487.81;5032555;28;20027;-56
2021/10/28 00:42:56;;;;;;;36.88;11.88;;;;;;;-144.43;100.00;64487.81;5031953;28;20132;-58
2021/10/28 00:46:24;;;;;;;28.73;11.57;;;;;;;-144.43;100.00;64487.81;5031476;28;20026;-54
2021/10/28 00:49:49;;;;;;;34.78;11.48;;;;;;;-144.43;100.00;64487.81;5031940;28;20025;-59
2021/10/28 00:53:12;;;;;;;;;;;;;;;-144.43;100.00;64487.81;5014922;28;20036;-58
2021/10/28 00:56:39;;;;;;;17.33;10.50;;;;;;;-144.43;100.00;64487.81;5013722;28;19916;-53
2021/10/28 01:00:15;;;;;;;51.13;11.73;;;;;;;-144.43;100.00;64487.81;4962947;28;20041;-58
2021/10/28 01:03:39;;;;;;;25.55;11.00;;;;;;;-144.43;100.00;64487.81;4981381;28;20062;-54
2021/10/28 01:07:10;;;;;;;21.85;11.07;;;;;;;-144.43;100.00;64487.81;4966184;28;20528;-54
2021/10/28 01:10:37;;;;;;;16.77;10.35;;;;;;;-144.43;100.00;64487.81;5005720;28;20393;-57
2021/10/28 01:14:16;;;;;;;33.00;10.70;;;;;;;-144.43;100.00;64487.81;5002869;28;20033;-53
2021/10/28 01:17:40;;;;;;;32.92;10.90;;;;;;;-144.43;100.00;64487.81;5011627;28;20499;-53
2021/10/28 01:21:08;;;;;;;15.38;9.75;;;;;;;-144.43;100.00;64487.81;4993883;28;20029;-56
2021/10/28 01:24:44;;;;;;;17.73;10.32;;;;;;;-144.43;100.00;64487.81;5011541;28;20026;-56
2021/10/28 01:28:15;;;;;;;37.78;10.68;;;;;;;-144.43;100.00;64487.81;4993927;28;20124;-53
2021/10/28 01:31:39;;;;;;;20.92;9.80;;;;;;;-144.43;100.00;64487.81;5011728;28;20030;-57
2021/10/28 01:35:04;;;;;;;17.65;10.00;;;;;;;-144.43;100.00;64487.81;5011416;28;20083;-53
2021/10/28 01:38:28;;;;;;;22.50;10.15;;;;;;;-144.43;100.00;64487.81;5011604;28;20038;-58
2021/10/28 01:41:53;;;;;;;;;;;;;;;-144.43;100.00;64487.81;4994480;28;20033;-58
2021/10/28 01:45:24;;;;;;;29.45;9.90;;;;;;;-144.43;100.00;64487.81;5012354;28;20393;-55
2021/10/28 01:48:50;;;;;;;20.23;9.70;;;;;;;-144.43;100.00;64487.81;5031260;28;20052;-58
2021/10/28 01:52:18;;;;;;;13.70;9.82;;;;;;;-144.43;100.00;64487.81;5031307;28;20518;-59
2021/10/28 01:55:47;;;;;;;36.78;10.00;;;;;;;-144.43;100.00;64487.81;5013362;28;20025;-54
2021/10/28 01:59:15;;;;;;;13.98;9.48;;;;;;;-144.43;100.00;64487.81;5013141;28;20510;-59
2021/10/28 02:02:41;;;;;;;34.75;10.45;;;;;;;-144.43;100.00;64487.81;5009061;28;20048;-59
2021/10/28 02:06:06;;;;;;;30.30;10.48;;;;;;;-144.43;100.00;64487.81;5015664;28;20029;-55
2021/10/28 02:09:30;;;;;;;34.80;10.50;;;;;;;-144.43;100.00;64487.81;5011364;28;20059;-55
2021/10/28 02:13:01;;;;;;;30.65;10.00;;;;;;;-144.43;100.00;64487.81;5011071;28;20482;-59
2021/10/28 02:16:48;;;;;;;23.20;10.23;;;;;;;-144.43;100.00;64487.81;4992679;28;20033;-54
2021/10/28 02:20:16;;;;;;;15.48;9.20;;;;;;;-144.43;100.00;64487.81;4993469;28;20045;-59
2021/10/28 02:23:43;;;;;;;30.20;10.05;;;;;;;-144.43;100.00;64487.81;5011301;28;20037;-54
2021/10/28 02:26:15;;;;;;;19.80;9.25;;;;;;;3.70;100.00;95657.63;5001816;28;20038;-54
2021/10/28 02:28:43;;;;;;;25.73;9.77;;;;;;;4.88;100.00;95559.88;4993734;28;20041;-53
2021/10/28 02:31:08;;;;;;;30.02;9.32;;;;;;;4.89;100.00;95581.94;5010648;28;20041;-56
2021/10/28 02:33:34;;;;;;;15.95;10.10;;;;;;;-144.43;100.00;64487.81;5019182;28;20037;-54
2021/10/28 02:35:59;;;;;;;25.95;9.20;;;;;;;-144.43;100.00;64487.81;5004479;28;20026;-54
2021/10/28 02:38:25;;;;;;;20.73;9.35;;;;;;;-144.43;100.00;64487.81;4971208;28;20117;-54
2021/10/28 02:40:53;;;;;;;29.88;10.27;;;;;;;-144.43;100.00;64487.81;5010514;28;20021;-54
2021/10/28 02:43:19;;;;;;;71.88;10.88;;;;;;;-144.43;100.00;64487.81;4993144;28;20400;-55
2021/10/28 02:45:46;;;;;;;52.25;9.80;;;;;;;-144.43;100.00;64487.81;4992866;28;20037;-54
2021/10/28 02:48:11;;;;;;;29.08;9.10;;;;;;;-144.43;100.00;64487.81;5011187;28;20034;-59
2021/10/28 02:50:41;;;;;;;33.08;9.45;;;;;;;-144.43;100.00;64487.81;4993253;28;20139;-56
2021/10/28 02:53:06;;;;;;;39.03;9.20;;;;;;;-144.43;100.00;64487.81;5010390;28;20037;-57
2021/10/28 02:55:34;;;;;;;76.03;10.50;;;;;;;-144.43;100.00;64487.81;5010556;28;20591;-58
2021/10/28 02:58:07;;;;;;;55.15;9.57;;;;;;;-144.43;100.00;64487.81;4993402;28;20022;-58
2021/10/28 03:00:32;;;;;;;31.83;9.77;;;;;;;-144.43;100.00;64487.81;4993122;28;20065;-59
2021/10/28 03:02:58;;;;;;;49.63;9.82;;;;;;;-144.43;100.00;64487.81;4992871;28;20528;-57
2021/10/28 03:05:23;;;;;;;32.53;9.65;;;;;;;-144.43;100.00;64487.81;5010547;28;20551;-55
2021/10/28 03:07:49;;;;;;;48.33;9.77;;;;;;;-144.43;100.00;64487.81;5013155;28;20029;-53
2021/10/28 03:10:15;;;;;;;25.88;9.48;;;;;;;-144.43;100.00;64487.81;5014431;28;20029;-55
2021/10/28 03:12:45;;;;;;;55.97;9.80;;;;;;;-144.43;100.00;64487.81;4996602;28;20030;-54
2021/10/28 03:15:14;;;;;;;62.10;9.50;;;;;;;-144.43;100.00;64487.81;4996612;28;20061;-54
2021/10/28 03:25:40;;;;;;;114.63;10.82;;;;;;;-144.43;100.00;64487.81;5013833;28;20123;-59
2021/10/28 03:28:20;;;;;;;68.72;9.93;;;;;;;-144.43;100.00;64487.81;5014170;28;20038;-57
2021/10/28 03:30:49;;;;;;;57.75;9.80;;;;;;;-144.43;100.00;64487.81;4996073;28;20113;-58
2021/10/28 03:33:23;;;;;;;42.80;9.95;;;;;;;-144.43;100.00;64487.81;5013717;28;20108;-58
2021/10/28 03:35:49;;;;;;;62.13;9.80;;;;;;;-144.43;100.00;64487.81;5013864;28;20033;-58
2021/10/28 03:38:42;;;;;;;40.75;10.05;;;;;;;-144.43;100.00;64487.81;4980261;28;20026;-58
2021/10/28 04:21:13;;;;;;;43.95;12.10;;;;;;;-144.43;100.00;64487.81;5012751;28;20451;-55
2021/10/28 04:29:37;;;;;;;13.15;9.10;;;;;;;-144.43;100.00;64487.81;4974762;28;20047;-54
2021/10/28 04:32:03;;;;;;;30.13;12.00;;;;;;;-144.43;100.00;64487.81;5011096;28;20478;-55
2021/10/28 04:34:28;;;;;;;16.63;11.02;;;;;;;-144.43;100.00;64487.81;4993598;28;20026;-55
2021/10/28 04:36:54;;;;;;;59.72;10.82;;;;;;;-144.43;100.00;64487.81;4993798;28;20097;-57
2021/10/28 04:39:19;;;;;;;52.45;11.57;;;;;;;-144.43;100.00;64487.81;5011864;28;20026;-54
2021/10/28 04:41:47;;;;;;;33.65;10.65;;;;;;;-144.43;100.00;64487.81;4988298;28;20098;-56
2021/10/28 04:44:12;;;;;;;17.60;10.60;;;;;;;-144.43;100.00;64487.81;5014769;28;20021;-58
2021/10/28 04:46:38;;;;;;;17.17;10.75;;;;;;;-144.43;100.00;64487.81;5032137;28;20499;-54
2021/10/28 04:49:04;;;;;;;28.80;12.43;;;;;;;-144.43;100.00;64487.81;5014695;28;20392;-54
2021/10/28 04:51:30;;;;;;;23.42;10.73;;;;;;;-144.43;100.00;64487.81;5014038;28;20028;-55
2021/10/28 04:53:55;;;;;;;23.77;11.27;;;;;;;-144.43;100.00;64487.81;5014441;28;20040;-57
2021/10/28 04:56:21;;;;;;;20.05;10.63;;;;;;;-144.43;100.00;64487.81;4969746;23;1093605;-63
2021/10/28 04:58:49;;;;;;;16.58;10.35;;;;;;;-144.43;100.00;64487.81;5031906;28;20107;-61
2021/10/28 05:01:15;;;;;;;22.83;10.95;;;;;;;-144.43;100.00;64487.81;5010774;28;20025;-55
2021/10/28 05:03:40;;;;;;;22.08;10.73;;;;;;;-144.43;100.00;64487.81;5012144;28;20042;-54
2021/10/28 05:06:08;;;;;;;18.10;11.13;;;;;;;-144.43;100.00;64487.81;5030187;28;20037;-54
2021/10/28 05:08:34;;;;;;;23.50;10.68;;;;;;;-144.43;100.00;64487.81;5031658;28;20384;-62
2021/10/28 05:11:00;;;;;;;29.17;10.90;;;;;;;-144.43;100.00;64487.81;5013979;28;20118;-61
2021/10/28 05:13:25;;;;;;;34.10;10.63;;;;;;;-144.43;100.00;64487.81;5023076;28;20028;-64
2021/10/28 05:15:52;;;;;;;30.48;10.77;;;;;;;-144.43;100.00;64487.81;5020889;28;20480;-62
2021/10/28 05:18:24;;;;;;;18.10;10.18;;;;;;;-144.43;100.00;64487.81;5027597;28;20032;-63
2021/10/28 05:20:49;;;;;;;45.35;10.68;;;;;;;-144.43;100.00;64487.81;5011280;28;20108;-62
2021/10/28 05:23:17;;;;;;;16.52;10.23;;;;;;;-144.43;100.00;64487.81;5010188;28;20155;-61
2021/10/28 05:25:54;;;;;;;34.20;11.40;;;;;;;-144.43;100.00;64487.81;5009417;28;20033;-60
2021/10/28 05:28:23;;;;;;;19.15;10.60;;;;;;;-144.43;100.00;64487.81;5013520;28;20025;-60
2021/10/28 05:30:48;;;;;;;17.85;10.57;;;;;;;-144.43;100.00;64487.81;5026720;28;20041;-61
2021/10/28 05:33:17;;;;;;;20.10;11.70;;;;;;;-144.43;100.00;64487.81;5013484;28;20025;-58
2021/10/28 05:35:42;;;;;;;19.23;10.93;;;;;;;-144.43;100.00;64487.81;5030424;28;20064;-60
2021/10/28 05:38:08;;;;;;;21.63;11.75;;;;;;;-144.43;100.00;64487.81;5013411;28;20483;-60
2021/10/28 05:40:33;;;;;;;24.90;11.90;;;;;;;-144.43;100.00;64487.81;4993845;28;20025;-60
2021/10/28 05:42:58;;;;;;;23.45;11.63;;;;;;;-144.43;100.00;64487.81;5013139;28;20029;-60
2021/10/28 05:45:33;;;;;;;21.38;11.15;;;;;;;-144.43;100.00;64487.81;5030358;28;20098;-52
2021/10/28 05:47:59;;;;;;;19.42;11.25;;;;;;;-144.43;100.00;64487.81;5030788;28;20487;-55
2021/10/28 05:50:25;;;;;;;18.65;10.82;;;;;;;-144.43;100.00;64487.81;5031074;28;20025;-55
2021/10/28 05:52:52;;;;;;;22.70;13.10;;;;;;;-144.43;100.00;64487.81;5025856;28;20074;-57
2021/10/28 05:55:20;;;;;;;17.60;12.07;;;;;;;-144.43;100.00;64487.81;5022437;28;20550;-56
2021/10/28 05:57:46;;;;;;;19.23;12.23;;;;;;;-144.43;100.00;64487.81;4989053;28;20025;-52
2021/10/28 06:00:11;;;;;;;17.27;11.43;;;;;;;-144.43;100.00;64487.81;5027943;28;20091;-57
2021/10/28 06:02:41;;;;;;;18.60;11.77;;;;;;;-144.43;100.00;64487.81;5028149;28;20438;-58
2021/10/28 06:05:07;;;;;;;21.20;11.70;;;;;;;-144.43;100.00;64487.81;5029970;28;20439;-59
2021/10/28 06:07:33;;;;;;;20.08;12.60;;;;;;;-144.43;100.00;64487.81;4984163;28;20026;-59
2021/10/28 06:09:59;;;;;;;20.80;12.27;;;;;;;-144.43;100.00;64487.81;5024524;28;20477;-61
2021/10/28 06:12:32;;;;;;;21.55;12.10;;;;;;;-144.43;100.00;64487.81;5030640;28;20075;-63
2021/10/28 06:14:57;;;;;;;20.33;12.75;;;;;;;-144.43;100.00;64487.81;5028183;28;20026;-63
2021/10/28 06:17:31;;;;;;;19.83;12.85;;;;;;;-144.43;100.00;64487.81;5027479;28;20057;-62
2021/10/28 06:19:56;;;;;;;20.50;12.50;;;;;;;-144.43;100.00;64487.81;5030655;28;20105;-62
2021/10/28 06:22:22;;;;;;;22.55;13.25;;;;;;;-144.43;100.00;64487.81;5030620;28;20112;-61
2021/10/28 06:24:47;;;;;;;21.88;13.05;;;;;;;-144.43;100.00;64487.81;5003344;28;20116;-60
2021/10/28 06:27:12;;;;;;;23.10;13.88;;;;;;;-144.43;100.00;64487.81;5027785;28;20029;-62
2021/10/28 06:29:38;;;;;;;22.85;12.73;;;;;;;-144.43;100.00;64487.81;5009083;28;20028;-63
2021/10/28 06:32:03;;;;;;;20.55;12.98;;;;;;;-144.43;100.00;64487.81;5012303;28;20060;-63
2021/10/28 06:34:37;;;;;;;21.58;13.02;;;;;;;-144.43;100.00;64487.81;5012794;28;20076;-63
2021/10/28 06:37:06;;;;;;;21.70;12.75;;;;;;;-144.43;100.00;64487.81;5030255;28;20548;-61
2021/10/28 06:39:34;;;;;;;24.33;12.95;;;;;;;-144.43;100.00;64487.81;5030568;28;20454;-62
2021/10/28 06:42:00;;;;;;;21.25;12.60;;;;;;;-144.43;100.00;64487.81;5014358;28;20031;-62
2021/10/28 06:44:25;;;;;;;22.05;13.80;;;;;;;-144.43;100.00;64487.81;5000193;28;20025;-60
2021/10/28 06:46:51;;;;;;;22.23;14.45;;;;;;;-144.43;100.00;64487.81;5016067;28;20468;-56
2021/10/28 06:49:18;;;;;;;23.95;14.05;;;;;;;-144.43;100.00;64487.81;5017378;28;20404;-54
2021/10/28 06:51:46;;;;;;;21.05;13.15;;;;;;;-144.43;100.00;64487.81;5016553;28;20096;-54
2021/10/28 06:54:23;;;;;;;28.23;12.70;;;;;;;-144.43;100.00;64487.81;5017110;28;20415;-62
2021/10/28 07:04:59;;;;;;;20.20;11.88;;;;;;;-144.43;100.00;64487.81;5034311;28;20032;-56
2021/10/28 07:07:32;;;;;;;19.88;12.35;;;;;;;-144.43;100.00;64487.81;4996094;28;20034;-52
2021/10/28 07:10:29;;;;;;;21.05;12.20;;;;;;;-144.43;100.00;64487.81;5030909;28;20431;-55
2021/10/28 07:13:18;;;;;;;21.73;12.07;;;;;;;-144.43;100.00;64487.81;5033893;28;20025;-54
2021/10/28 07:15:57;;;;;;;20.33;11.95;;;;;;;-144.43;100.00;64487.81;4996582;28;20034;-61
2021/10/28 07:18:56;;;;;;;20.92;12.93;;;;;;;-144.43;100.00;64487.81;5033400;28;20025;-59
2021/10/28 07:30:24;;;;;;;38.95;12.98;;;;;;;-144.43;100.00;64487.81;5033461;28;20091;-60
2021/10/28 07:33:53;;;;;;;25.85;12.68;;;;;;;-144.43;100.00;64487.81;5019042;28;20049;-59
2021/10/28 08:21:47;;;;;;;30.27;15.80;;;;;;;-144.43;100.00;64487.81;5033170;28;20069;-60
2021/10/28 08:31:44;;;;;;;29.30;15.52;;;;;;;-144.43;100.00;64487.81;5032367;28;20071;-61
2021/10/28 08:35:00;;;;;;;30.95;16.90;;;;;;;-144.43;100.00;64487.81;5012157;28;20068;-60
2021/10/28 08:38:17;;;;;;;32.92;16.80;;;;;;;-144.43;100.00;64487.81;5032665;28;20443;-57
2021/10/28 08:41:51;;;;;;;33.35;16.90;;;;;;;-144.43;100.00;64487.81;5030697;28;20053;-60
2021/10/28 08:44:58;;;;;;;37.90;18.35;;;;;;;-144.43;100.00;64487.81;5032281;28;20029;-61
2021/10/28 08:48:27;;;;;;;32.78;18.17;;;;;;;-144.43;100.00;64487.81;5031791;28;20068;-61
2021/10/28 08:55:22;;;;;;;31.10;17.15;;;;;;;-144.43;100.00;64487.81;5032211;28;20452;-63
2021/10/28 09:32:49;;;;;;;32.13;17.50;;;;;;;-144.43;100.00;64487.81;5024218;28;20026;-52
2021/10/28 09:44:37;;;;;;;27.83;16.75;;;;;;;-144.43;100.00;64487.81;5022406;28;20028;-60
2021/10/28 09:51:32;;;;;;;34.20;17.42;;;;;;;-144.43;100.00;64487.81;5021953;28;20519;-60
2021/10/28 09:58:53;;;;;;;27.80;15.98;;;;;;;-144.43;100.00;64487.81;5011835;28;20416;-55
2021/10/28 10:05:59;;;;;;;29.75;16.67;;;;;;;-144.43;100.00;64487.81;5006194;28;20040;-61
2021/10/28 10:09:21;;;;;;;29.40;17.27;;;;;;;-144.43;100.00;64487.81;5024415;28;20072;-61
2021/10/28 10:12:05;;;;;;;30.85;18.23;;;;;;;-144.43;100.00;64487.81;4996394;28;20038;-61
2021/10/28 10:14:51;;;;;;;34.30;18.75;;;;;;;-144.43;100.00;64487.81;4992719;28;20171;-61
2021/10/28 10:17:39;;;;;;;33.08;18.58;;;;;;;-144.43;100.00;64487.81;5027784;28;20028;-61
2021/10/28 10:21:11;;;;;;;28.55;17.02;;;;;;;-144.43;100.00;64487.81;5023544;28;20030;-63
2021/10/28 10:25:03;;;;;;;31.20;18.08;;;;;;;-144.43;100.00;64487.81;5026142;28;20049;-62
2021/10/28 11:06:17;;;;;;;25.55;16.33;;;;;;;13.72;100.00;95126.59;5013223;28;20051;-52
2021/10/28 11:23:56;;;;;;;25.38;17.58;;;;;;;14.25;100.00;94899.53;5011114;28;20091;-54
2021/10/28 12:48:02;;;;;;;24.92;17.95;;;;;;;16.53;100.00;95400.00;4991285;28;20026;-56
2021/10/28 12:53:39;;;;;;;25.45;16.65;;;;;;;16.44;100.00;95420.69;5010383;28;20034;-56
2021/10/28 13:28:12;;;;;;;22.85;14.15;;;;;;;15.93;100.00;95422.19;4995846;28;20056;-54
2021/10/28 13:49:36;;;;;;;19.23;13.27;;;;;;;16.34;100.00;95424.34;4979673;28;20088;-60
2021/10/28 14:31:48;;;;;;;20.30;13.32;;;;;;;15.40;100.00;95291.88;5000668;28;20695;-55
2021/10/28 14:58:37;;;;;;;18.67;13.27;;;;;;;15.39;100.00;95222.81;4992596;28;20053;-56
2021/10/28 15:36:42;;;;;;;21.38;14.70;;;;;;;12.26;100.00;94984.06;4990679;28;20033;-59
2021/10/28 15:39:16;;;;;;;25.95;16.02;;;;;;;12.04;100.00;94966.47;4979566;28;20425;-54
2021/10/28 16:24:19;;;;;;;26.63;17.67;;;;;;;8.47;100.00;95080.88;4993633;28;20381;-56
2021/10/28 16:26:44;;;;;;;31.25;18.17;;;;;;;8.30;100.00;95086.25;4981192;28;20021;-54
2021/10/28 16:29:12;;;;;;;26.20;18.02;;;;;;;8.17;100.00;95098.13;4993493;28;20037;-58
2021/10/28 16:31:40;;;;;;;28.58;17.20;;;;;;;8.05;100.00;95100.94;4991353;28;20104;-58
2021/10/28 16:34:06;;;;;;;28.33;17.23;;;;;;;7.99;100.00;95119.78;4994610;28;20109;-58
2021/10/28 16:36:31;;;;;;;28.42;17.30;;;;;;;7.89;100.00;95136.44;4974381;28;20140;-54
2021/10/28 16:38:59;;;;;;;28.60;17.52;;;;;;;7.82;100.00;95144.63;4993184;28;20034;-58
2021/10/28 16:41:24;;;;;;;28.50;17.02;;;;;;;7.74;100.00;95152.25;4991560;28;20019;-61
2021/10/28 16:43:50;;;;;;;25.88;16.48;;;;;;;7.63;100.00;95167.28;4991726;28;20072;-62
2021/10/28 16:46:15;;;;;;;26.75;16.45;;;;;;;7.55;100.00;95179.16;4993051;28;20045;-54
2021/10/28 16:48:41;;;;;;;29.08;17.67;;;;;;;7.52;100.00;95192.97;4990377;28;20068;-60
2021/10/28 16:51:09;;;;;;;26.25;16.60;;;;;;;7.44;100.00;95196.03;4989933;28;20034;-62
2021/10/28 16:53:34;;;;;;;27.88;18.02;;;;;;;7.41;100.00;95207.19;4975867;28;20083;-53
2021/10/28 16:56:00;;;;;;;29.13;17.08;;;;;;;7.38;100.00;95218.34;4986415;28;20030;-54
2021/10/28 16:58:26;;;;;;;32.45;17.70;;;;;;;7.30;100.00;95220.59;4998199;28;20037;-53
2021/10/28 17:00:51;;;;;;;29.30;17.50;;;;;;;7.27;100.00;95240.50;4988980;28;20030;-57
2021/10/28 17:03:19;;;;;;;27.02;17.15;;;;;;;7.17;100.00;95243.00;4993205;28;20049;-59
2021/10/28 17:05:45;;;;;;;34.03;17.67;;;;;;;7.08;100.00;95249.78;4978760;28;20432;-58
2021/10/28 17:08:10;;;;;;;27.17;17.10;;;;;;;7.14;100.00;95251.47;4990467;28;20674;-60
2021/10/28 17:10:36;;;;;;;28.50;16.75;;;;;;;7.00;100.00;95258.13;4989373;28;20034;-60
2021/10/28 17:13:01;;;;;;;28.17;16.90;;;;;;;6.88;100.00;95260.84;4994384;28;20024;-62
2021/10/28 17:15:26;;;;;;;28.73;16.58;;;;;;;6.85;100.00;95267.47;5000088;28;20037;-61
2021/10/28 17:17:52;;;;;;;34.42;17.90;;;;;;;6.79;100.00;95264.94;4994653;28;20064;-60
2021/10/28 17:20:18;;;;;;;27.77;16.65;;;;;;;6.58;100.00;95267.19;5000041;28;20050;-61
2021/10/28 17:22:44;;;;;;;30.05;17.90;;;;;;;6.57;100.00;95270.88;5000773;28;20029;-61
2021/10/28 17:25:17;;;;;;;31.13;17.13;;;;;;;6.56;100.00;95276.44;4982212;28;20097;-58
2021/10/28 17:27:44;;;;;;;28.92;18.13;;;;;;;6.49;100.00;95281.88;4991678;28;20037;-61
2021/10/28 17:30:10;;;;;;;27.75;16.90;;;;;;;6.42;100.00;95291.06;4976583;28;20034;-61
2021/10/28 17:32:39;;;;;;;27.05;17.05;;;;;;;6.36;100.00;95290.13;4997146;28;20081;-61
2021/10/28 17:35:08;;;;;;;28.55;16.80;;;;;;;6.34;100.00;95300.19;4993250;28;20077;-58
2021/10/28 17:37:37;;;;;;;27.88;16.67;;;;;;;6.34;100.00;95302.84;4992272;28;20026;-61
2021/10/28 17:40:04;;;;;;;27.17;16.55;;;;;;;6.28;100.00;95301.91;5002489;28;20018;-58
2021/10/28 17:42:29;;;;;;;28.42;16.60;;;;;;;6.27;100.00;95307.47;4996188;28;20087;-59
2021/10/28 17:44:59;;;;;;;25.02;15.90;;;;;;;6.22;100.00;95304.72;4972197;28;20060;-59
2021/10/28 17:47:25;;;;;;;24.80;16.23;;;;;;;6.18;100.00;95303.53;4991633;28;20027;-56
2021/10/28 17:49:51;;;;;;;27.30;16.70;;;;;;;6.13;100.00;95306.09;4993965;28;20041;-60
2021/10/28 17:52:17;;;;;;;24.58;15.57;;;;;;;6.09;100.00;95311.88;4975153;28;20026;-58
2021/10/28 17:54:43;;;;;;;28.55;15.98;;;;;;;6.07;100.00;95313.94;4990951;28;20030;-56
2021/10/28 17:57:10;;;;;;;28.08;16.77;;;;;;;6.02;100.00;95308.53;4996917;28;20679;-60
2021/10/28 17:59:35;;;;;;;25.63;16.05;;;;;;;6.03;100.00;95304.00;4982591;28;20037;-60
2021/10/28 18:02:00;;;;;;;28.70;17.08;;;;;;;6.12;100.00;95315.13;4996925;28;20030;-61
2021/10/28 18:04:26;;;;;;;27.45;16.48;;;;;;;6.14;100.00;95307.72;4990321;28;20039;-61
2021/10/28 18:06:51;;;;;;;29.05;17.23;;;;;;;6.24;100.00;95310.59;4997399;28;20022;-61
2021/10/28 18:09:23;;;;;;;27.33;16.02;;;;;;;6.22;100.00;95308.19;4996274;28;20026;-60
2021/10/28 18:11:49;;;;;;;27.67;16.83;;;;;;;6.19;100.00;95302.53;4993347;28;20034;-61
2021/10/28 18:14:16;;;;;;;31.58;17.60;;;;;;;6.17;100.00;95305.38;4989139;28;20090;-60
2021/10/28 18:16:42;;;;;;;28.35;17.75;;;;;;;6.16;100.00;95303.78;4977340;28;20037;-60
2021/10/28 18:19:11;;;;;;;34.95;17.02;;;;;;;6.15;100.00;95304.00;4982029;28;20038;-60
2021/10/28 18:21:40;;;;;;;29.63;17.52;;;;;;;6.14;100.00;95295.22;4996568;28;20537;-61
2021/10/28 18:24:06;;;;;;;27.38;16.65;;;;;;;6.15;100.00;95301.34;4989345;28;20033;-57
2021/10/28 18:26:31;;;;;;;30.10;17.25;;;;;;;6.24;100.00;95297.31;4973458;28;20046;-56
2021/10/28 18:29:04;;;;;;;28.73;16.73;;;;;;;6.19;100.00;95298.00;4979860;28;20084;-61
2021/10/28 18:31:29;;;;;;;26.75;15.93;;;;;;;6.09;100.00;95305.75;4975934;28;20113;-59
2021/10/28 18:34:02;;;;;;;25.45;15.45;;;;;;;5.85;100.00;95307.53;4989205;28;20117;-60
2021/10/28 18:36:31;;;;;;;28.20;16.15;;;;;;;5.74;100.00;95309.13;4998840;28;20029;-57
2021/10/28 18:38:57;;;;;;;27.70;15.55;;;;;;;5.76;100.00;95308.94;4994922;28;20048;-59
2021/10/28 18:41:22;;;;;;;30.52;16.73;;;;;;;5.81;100.00;95312.50;4996134;28;20113;-57
2021/10/28 18:43:48;;;;;;;29.33;16.02;;;;;;;5.83;100.00;95312.28;5005065;28;20030;-57
2021/10/28 18:46:21;;;;;;;27.58;17.00;;;;;;;5.77;100.00;95313.22;4980977;28;20046;-60
2021/10/28 18:48:50;;;;;;;29.45;16.73;;;;;;;5.75;100.00;95301.97;4996254;28;20404;-58
2021/10/28 18:51:19;;;;;;;29.45;16.17;;;;;;;5.71;100.00;95301.63;4998880;28;20040;-57
2021/10/28 18:53:47;;;;;;;29.55;17.30;;;;;;;5.73;100.00;95304.88;4976828;28;20053;-61
2021/10/28 18:56:13;;;;;;;31.83;17.95;;;;;;;5.79;100.00;95303.16;5001985;28;20038;-61
2021/10/28 18:58:39;;;;;;;29.92;17.50;;;;;;;5.91;100.00;95301.34;4995139;28;20042;-57
2021/10/28 19:01:05;;;;;;;32.17;17.55;;;;;;;5.87;100.00;95302.03;4983154;28;20374;-61
2021/10/28 19:03:31;;;;;;;29.83;17.77;;;;;;;5.75;100.00;95294.00;5002886;28;20046;-61
2021/10/28 19:05:57;;;;;;;29.60;16.98;;;;;;;5.61;100.00;95303.22;4995625;28;20030;-59
2021/10/28 19:08:23;;;;;;;26.15;16.45;;;;;;;5.56;100.00;95301.28;4984793;28;20377;-60
2021/10/28 19:10:50;;;;;;;29.73;17.80;;;;;;;5.58;100.00;95301.03;4974755;28;20079;-58
2021/10/28 19:13:15;;;;;;;31.08;19.27;;;;;;;5.63;100.00;95306.47;4993554;28;20022;-60
2021/10/28 19:15:41;;;;;;;30.85;17.50;;;;;;;5.59;100.00;95311.44;4982816;28;20030;-59
2021/10/28 19:18:06;;;;;;;32.65;18.17;;;;;;;5.51;100.00;95312.56;5001142;28;20030;-56
2021/10/28 19:20:38;;;;;;;31.13;17.90;;;;;;;5.44;100.00;95311.06;4998218;28;20022;-58
2021/10/28 19:23:07;;;;;;;31.65;18.00;;;;;;;5.32;100.00;95305.72;4993814;28;20037;-60
2021/10/28 19:25:36;;;;;;;27.23;16.45;;;;;;;5.19;100.00;95308.53;4986144;28;20029;-56
2021/10/28 19:28:02;;;;;;;31.23;17.75;;;;;;;5.08;100.00;95291.53;4977220;28;20461;-58
2021/10/28 19:30:34;;;;;;;31.73;17.45;;;;;;;4.97;100.00;95286.19;5004801;28;20061;-56
2021/10/28 19:33:05;;;;;;;31.85;17.63;;;;;;;4.88;100.00;95286.50;4991416;28;20030;-57
2021/10/28 19:35:32;;;;;;;29.70;17.20;;;;;;;4.82;100.00;95298.00;4975798;28;20058;-57
2021/10/28 19:38:07;;;;;;;27.20;16.85;;;;;;;4.74;100.00;95293.00;4992986;28;20089;-60
2021/10/28 19:48:16;;;;;;;29.60;16.13;;;;;;;4.34;100.00;95297.94;4997680;28;20105;-57
2021/10/28 19:50:42;;;;;;;27.75;16.60;;;;;;;4.29;100.00;95298.63;5003419;28;20385;-56
2021/10/28 19:53:10;;;;;;;25.55;15.82;;;;;;;4.25;100.00;95300.09;5002933;28;20029;-59
2021/10/28 19:55:39;;;;;;;27.63;15.10;;;;;;;4.26;100.00;95301.72;4991353;28;20113;-54
2021/10/28 19:58:07;;;;;;;25.70;15.48;;;;;;;4.33;100.00;95293.66;4991654;28;20121;-61
2021/10/28 20:00:36;;;;;;;27.85;16.10;;;;;;;4.38;100.00;95288.53;5004994;28;20085;-60
2021/10/28 20:03:33;;;;;;;26.50;16.15;;;;;;;4.34;100.00;95285.53;4981778;28;20022;-61
2021/10/28 20:06:29;;;;;;;31.38;17.13;;;;;;;4.37;100.00;95278.97;4990782;28;20500;-59
2021/10/28 20:22:18;;;;;;;29.30;15.75;;;;;;;3.99;100.00;95277.28;5003582;28;20034;-56
2021/10/28 20:24:53;;;;;;;28.58;16.20;;;;;;;4.02;100.00;95290.13;4994793;28;20030;-55
2021/10/28 20:27:18;;;;;;;25.65;15.00;;;;;;;3.96;100.00;95280.41;4993038;28;20045;-55
2021/10/28 20:29:44;;;;;;;29.38;16.58;;;;;;;3.94;100.00;95279.00;4997286;28;20493;-58
2021/10/28 20:32:12;;;;;;;30.63;16.30;;;;;;;3.86;100.00;95280.06;4992637;28;20026;-57
2021/10/28 20:34:50;;;;;;;28.27;16.80;;;;;;;3.78;100.00;95283.81;4997824;28;20034;-57
2021/10/28 20:37:16;;;;;;;30.95;15.68;;;;;;;3.79;100.00;95279.31;4987481;28;20027;-56
2021/10/28 20:39:45;;;;;;;26.75;15.45;;;;;;;3.82;100.00;95278.91;4978120;28;20030;-57
2021/10/28 20:42:17;;;;;;;27.77;16.30;;;;;;;3.95;100.00;95270.00;4984349;28;20653;-57
2021/10/28 20:44:47;;;;;;;28.10;16.13;;;;;;;3.93;100.00;95272.88;4997632;28;20038;-58
2021/10/28 20:47:13;;;;;;;27.83;15.45;;;;;;;3.90;100.00;95269.84;4998392;28;20108;-56
2021/10/28 20:49:38;;;;;;;29.83;16.38;;;;;;;3.85;100.00;95267.06;4974561;28;20474;-60
2021/10/28 20:52:05;;;;;;;30.38;16.48;;;;;;;3.84;100.00;95254.84;4973976;28;20029;-58
2021/10/28 20:54:30;;;;;;;29.15;16.85;;;;;;;3.83;100.00;95250.56;4995738;28;20030;-60
2021/10/28 20:57:00;;;;;;;30.17;16.38;;;;;;;3.84;100.00;95249.53;4997480;28;20776;-60
2021/10/28 20:59:32;;;;;;;28.52;16.73;;;;;;;3.88;100.00;95250.72;4995837;28;20439;-56
2021/10/28 21:01:58;;;;;;;28.52;16.85;;;;;;;3.85;100.00;95253.81;4987409;28;20022;-58
2021/10/28 21:04:24;;;;;;;33.95;18.65;;;;;;;3.81;100.00;95247.34;4995006;28;20030;-57
2021/10/28 21:06:49;;;;;;;29.63;17.50;;;;;;;3.84;100.00;95247.69;4980939;28;20029;-56
2021/10/28 21:09:15;;;;;;;30.73;16.77;;;;;;;3.80;100.00;95249.16;4992324;28;20065;-56